sensor_id;sensor_type;location;lat;lon;timestamp;P1;durP1;ratioP1;P2;durP2;ratioP2
10653;SDS011;5375;51.250;6.776;2023-11-21T00:00:36;2.40;;;1.40;;
10653;SDS011;5375;51.250;6.776;2023-11-21T00:03:02;3.43;;;1.47;;
10653;SDS011;5375;51.250;6.776;2023-11-21T00:05:29;2.77;;;1.63;;
10653;SDS011;5375;51.250;6.776;2023-11-21T00:07:54;2.63;;;1.37;;
10653;SDS011;5375;51.250;6.776;2023-11-21T00:10:25;2.23;;;1.50;;
10653;SDS011;5375;51.250;6.776;2023-11-21T00:12:51;2.20;;;1.20;;
10653;SDS011;5375;51.250;6.776;2023-11-21T00:15:20;2.87;;;1.60;;
10653;SDS011;5375;51.250;6.776;2023-11-21T00:17:46;2.10;;;1.37;;
10653;SDS011;5375;51.250;6.776;2023-11-21T00:20:12;1.90;;;1.40;;
10653;SDS011;5375;51.250;6.776;2023-11-21T00:22:38;2.60;;;1.30;;
10653;SDS011;5375;51.250;6.776;2023-11-21T00:25:05;3.03;;;1.33;;
10653;SDS011;5375;51.250;6.776;2023-11-21T00:27:33;1.73;;;1.40;;
10653;SDS011;5375;51.250;6.776;2023-11-21T00:30:00;2.90;;;1.57;;
10653;SDS011;5375;51.250;6.776;2023-11-21T00:32:25;2.17;;;1.60;;
10653;SDS011;5375;51.250;6.776;2023-11-21T00:34:51;2.57;;;1.37;;
10653;SDS011;5375;51.250;6.776;2023-11-21T00:37:17;2.77;;;1.50;;
10653;SDS011;5375;51.250;6.776;2023-11-21T00:39:43;2.20;;;1.40;;
10653;SDS011;5375;51.250;6.776;2023-11-21T00:42:09;2.63;;;1.40;;
10653;SDS011;5375;51.250;6.776;2023-11-21T00:44:37;3.30;;;1.70;;
10653;SDS011;5375;51.250;6.776;2023-11-21T00:47:04;2.40;;;1.40;;
10653;SDS011;5375;51.250;6.776;2023-11-21T00:49:30;2.13;;;1.50;;
10653;SDS011;5375;51.250;6.776;2023-11-21T00:51:57;2.00;;;1.50;;
10653;SDS011;5375;51.250;6.776;2023-11-21T00:54:23;1.80;;;1.33;;
10653;SDS011;5375;51.250;6.776;2023-11-21T00:56:49;2.43;;;1.50;;
10653;SDS011;5375;51.250;6.776;2023-11-21T00:59:15;1.77;;;1.30;;
10653;SDS011;5375;51.250;6.776;2023-11-21T01:01:41;2.67;;;1.40;;
10653;SDS011;5375;51.250;6.776;2023-11-21T01:04:07;2.20;;;1.60;;
10653;SDS011;5375;51.250;6.776;2023-11-21T01:06:33;2.87;;;1.40;;
10653;SDS011;5375;51.250;6.776;2023-11-21T01:08:59;1.63;;;1.37;;
10653;SDS011;5375;51.250;6.776;2023-11-21T01:11:26;1.67;;;1.23;;
10653;SDS011;5375;51.250;6.776;2023-11-21T01:13:51;2.27;;;1.20;;
10653;SDS011;5375;51.250;6.776;2023-11-21T01:16:18;2.20;;;1.50;;
10653;SDS011;5375;51.250;6.776;2023-11-21T01:18:44;1.70;;;1.30;;
10653;SDS011;5375;51.250;6.776;2023-11-21T01:21:10;3.67;;;1.63;;
10653;SDS011;5375;51.250;6.776;2023-11-21T01:23:35;2.47;;;1.57;;
10653;SDS011;5375;51.250;6.776;2023-11-21T01:26:01;2.27;;;1.67;;
10653;SDS011;5375;51.250;6.776;2023-11-21T01:28:28;3.27;;;1.30;;
10653;SDS011;5375;51.250;6.776;2023-11-21T01:30:54;2.67;;;1.50;;
10653;SDS011;5375;51.250;6.776;2023-11-21T01:33:21;2.40;;;1.50;;
10653;SDS011;5375;51.250;6.776;2023-11-21T01:35:47;1.47;;;1.20;;
10653;SDS011;5375;51.250;6.776;2023-11-21T01:38:13;1.67;;;1.30;;
10653;SDS011;5375;51.250;6.776;2023-11-21T01:40:40;2.23;;;1.30;;
10653;SDS011;5375;51.250;6.776;2023-11-21T01:43:06;1.90;;;1.40;;
10653;SDS011;5375;51.250;6.776;2023-11-21T01:45:33;2.83;;;1.40;;
10653;SDS011;5375;51.250;6.776;2023-11-21T01:47:59;2.30;;;1.33;;
10653;SDS011;5375;51.250;6.776;2023-11-21T01:50:25;1.97;;;1.37;;
10653;SDS011;5375;51.250;6.776;2023-11-21T01:52:52;2.03;;;1.40;;
10653;SDS011;5375;51.250;6.776;2023-11-21T01:55:18;2.90;;;1.50;;
10653;SDS011;5375;51.250;6.776;2023-11-21T01:57:44;2.23;;;1.40;;
10653;SDS011;5375;51.250;6.776;2023-11-21T02:00:11;2.67;;;1.40;;
10653;SDS011;5375;51.250;6.776;2023-11-21T02:02:47;1.60;;;1.30;;
10653;SDS011;5375;51.250;6.776;2023-11-21T02:05:15;1.97;;;1.40;;
10653;SDS011;5375;51.250;6.776;2023-11-21T02:07:43;2.30;;;1.40;;
10653;SDS011;5375;51.250;6.776;2023-11-21T02:10:10;3.17;;;1.30;;
10653;SDS011;5375;51.250;6.776;2023-11-21T02:12:39;2.27;;;1.53;;
10653;SDS011;5375;51.250;6.776;2023-11-21T02:15:07;1.63;;;1.30;;
10653;SDS011;5375;51.250;6.776;2023-11-21T02:17:40;1.83;;;1.37;;
10653;SDS011;5375;51.250;6.776;2023-11-21T02:20:06;1.90;;;1.33;;
10653;SDS011;5375;51.250;6.776;2023-11-21T02:22:32;2.17;;;1.30;;
10653;SDS011;5375;51.250;6.776;2023-11-21T02:25:03;2.90;;;1.67;;
10653;SDS011;5375;51.250;6.776;2023-11-21T02:27:29;2.80;;;1.50;;
10653;SDS011;5375;51.250;6.776;2023-11-21T02:29:55;1.93;;;1.50;;
10653;SDS011;5375;51.250;6.776;2023-11-21T02:32:21;3.60;;;1.37;;
10653;SDS011;5375;51.250;6.776;2023-11-21T02:34:48;2.17;;;1.63;;
10653;SDS011;5375;51.250;6.776;2023-11-21T02:37:15;1.97;;;1.30;;
10653;SDS011;5375;51.250;6.776;2023-11-21T02:39:41;1.77;;;1.30;;
10653;SDS011;5375;51.250;6.776;2023-11-21T02:42:07;2.80;;;1.50;;
10653;SDS011;5375;51.250;6.776;2023-11-21T02:44:33;1.97;;;1.40;;
10653;SDS011;5375;51.250;6.776;2023-11-21T02:46:59;1.40;;;1.20;;
10653;SDS011;5375;51.250;6.776;2023-11-21T02:49:25;2.63;;;1.50;;
10653;SDS011;5375;51.250;6.776;2023-11-21T02:51:53;2.57;;;1.50;;
10653;SDS011;5375;51.250;6.776;2023-11-21T02:54:20;1.40;;;1.17;;
10653;SDS011;5375;51.250;6.776;2023-11-21T02:56:47;3.37;;;1.67;;
10653;SDS011;5375;51.250;6.776;2023-11-21T02:59:14;2.57;;;1.47;;
10653;SDS011;5375;51.250;6.776;2023-11-21T03:01:40;2.13;;;1.27;;
10653;SDS011;5375;51.250;6.776;2023-11-21T03:04:07;2.23;;;1.50;;
10653;SDS011;5375;51.250;6.776;2023-11-21T03:06:34;2.10;;;1.40;;
10653;SDS011;5375;51.250;6.776;2023-11-21T03:09:00;1.87;;;1.30;;
10653;SDS011;5375;51.250;6.776;2023-11-21T03:11:25;2.20;;;1.50;;
10653;SDS011;5375;51.250;6.776;2023-11-21T03:13:52;1.83;;;1.40;;
10653;SDS011;5375;51.250;6.776;2023-11-21T03:16:18;2.93;;;1.50;;
10653;SDS011;5375;51.250;6.776;2023-11-21T03:18:44;1.93;;;1.20;;
10653;SDS011;5375;51.250;6.776;2023-11-21T03:21:10;1.73;;;1.30;;
10653;SDS011;5375;51.250;6.776;2023-11-21T03:23:38;2.17;;;1.50;;
10653;SDS011;5375;51.250;6.776;2023-11-21T03:26:04;2.60;;;1.50;;
10653;SDS011;5375;51.250;6.776;2023-11-21T03:28:33;2.40;;;1.20;;
10653;SDS011;5375;51.250;6.776;2023-11-21T03:30:59;2.17;;;1.30;;
10653;SDS011;5375;51.250;6.776;2023-11-21T03:33:25;2.40;;;1.40;;
10653;SDS011;5375;51.250;6.776;2023-11-21T03:35:50;2.57;;;1.30;;
10653;SDS011;5375;51.250;6.776;2023-11-21T03:38:17;3.00;;;1.60;;
10653;SDS011;5375;51.250;6.776;2023-11-21T03:40:44;1.97;;;1.37;;
10653;SDS011;5375;51.250;6.776;2023-11-21T03:43:10;1.90;;;1.23;;
10653;SDS011;5375;51.250;6.776;2023-11-21T03:45:36;2.77;;;1.70;;
10653;SDS011;5375;51.250;6.776;2023-11-21T03:48:02;2.00;;;1.43;;
10653;SDS011;5375;51.250;6.776;2023-11-21T03:50:28;1.83;;;1.17;;
10653;SDS011;5375;51.250;6.776;2023-11-21T03:52:54;1.80;;;1.40;;
10653;SDS011;5375;51.250;6.776;2023-11-21T03:55:20;4.50;;;1.30;;
10653;SDS011;5375;51.250;6.776;2023-11-21T03:57:51;2.30;;;1.60;;
10653;SDS011;5375;51.250;6.776;2023-11-21T04:00:17;3.90;;;1.50;;
10653;SDS011;5375;51.250;6.776;2023-11-21T04:02:45;3.47;;;1.20;;
10653;SDS011;5375;51.250;6.776;2023-11-21T04:05:11;9.53;;;1.60;;
10653;SDS011;5375;51.250;6.776;2023-11-21T04:07:37;2.37;;;1.50;;
10653;SDS011;5375;51.250;6.776;2023-11-21T04:10:04;2.23;;;1.30;;
10653;SDS011;5375;51.250;6.776;2023-11-21T04:12:33;1.47;;;1.23;;
10653;SDS011;5375;51.250;6.776;2023-11-21T04:14:59;2.83;;;1.40;;
10653;SDS011;5375;51.250;6.776;2023-11-21T04:17:25;2.60;;;1.23;;
10653;SDS011;5375;51.250;6.776;2023-11-21T04:19:51;1.60;;;1.13;;
10653;SDS011;5375;51.250;6.776;2023-11-21T04:22:16;1.77;;;1.30;;
10653;SDS011;5375;51.250;6.776;2023-11-21T04:24:42;4.80;;;1.33;;
10653;SDS011;5375;51.250;6.776;2023-11-21T04:27:08;2.30;;;1.40;;
10653;SDS011;5375;51.250;6.776;2023-11-21T04:29:34;3.10;;;1.40;;
10653;SDS011;5375;51.250;6.776;2023-11-21T04:32:01;1.80;;;1.43;;
10653;SDS011;5375;51.250;6.776;2023-11-21T04:34:27;3.13;;;1.40;;
10653;SDS011;5375;51.250;6.776;2023-11-21T04:36:56;1.80;;;1.37;;
10653;SDS011;5375;51.250;6.776;2023-11-21T04:39:22;1.87;;;1.37;;
10653;SDS011;5375;51.250;6.776;2023-11-21T04:41:48;1.83;;;1.40;;
10653;SDS011;5375;51.250;6.776;2023-11-21T04:44:14;3.20;;;1.40;;
10653;SDS011;5375;51.250;6.776;2023-11-21T04:46:41;1.97;;;1.43;;
10653;SDS011;5375;51.250;6.776;2023-11-21T04:49:07;2.90;;;1.30;;
10653;SDS011;5375;51.250;6.776;2023-11-21T04:51:33;2.30;;;1.40;;
10653;SDS011;5375;51.250;6.776;2023-11-21T04:54:06;1.80;;;1.30;;
10653;SDS011;5375;51.250;6.776;2023-11-21T04:56:32;2.00;;;1.40;;
10653;SDS011;5375;51.250;6.776;2023-11-21T04:58:58;8.40;;;2.07;;
10653;SDS011;5375;51.250;6.776;2023-11-21T05:01:24;3.07;;;1.40;;
10653;SDS011;5375;51.250;6.776;2023-11-21T05:03:50;4.00;;;1.73;;
10653;SDS011;5375;51.250;6.776;2023-11-21T05:06:17;2.60;;;1.50;;
10653;SDS011;5375;51.250;6.776;2023-11-21T05:08:43;2.80;;;1.63;;
10653;SDS011;5375;51.250;6.776;2023-11-21T05:11:09;3.33;;;1.33;;
10653;SDS011;5375;51.250;6.776;2023-11-21T05:13:36;3.03;;;1.63;;
10653;SDS011;5375;51.250;6.776;2023-11-21T05:16:02;1.90;;;1.50;;
10653;SDS011;5375;51.250;6.776;2023-11-21T05:18:31;1.73;;;1.50;;
10653;SDS011;5375;51.250;6.776;2023-11-21T05:20:57;9.77;;;1.57;;
10653;SDS011;5375;51.250;6.776;2023-11-21T05:23:23;2.67;;;1.77;;
10653;SDS011;5375;51.250;6.776;2023-11-21T05:25:49;4.20;;;1.70;;
10653;SDS011;5375;51.250;6.776;2023-11-21T05:28:14;3.13;;;1.60;;
10653;SDS011;5375;51.250;6.776;2023-11-21T05:30:40;2.87;;;1.50;;
10653;SDS011;5375;51.250;6.776;2023-11-21T05:33:06;2.43;;;1.60;;
10653;SDS011;5375;51.250;6.776;2023-11-21T05:35:32;7.20;;;1.90;;
10653;SDS011;5375;51.250;6.776;2023-11-21T05:37:58;4.97;;;1.73;;
10653;SDS011;5375;51.250;6.776;2023-11-21T05:40:24;5.90;;;1.80;;
10653;SDS011;5375;51.250;6.776;2023-11-21T05:42:54;4.63;;;1.87;;
10653;SDS011;5375;51.250;6.776;2023-11-21T05:45:21;3.70;;;1.70;;
10653;SDS011;5375;51.250;6.776;2023-11-21T05:47:47;2.80;;;1.63;;
10653;SDS011;5375;51.250;6.776;2023-11-21T05:50:14;4.53;;;1.97;;
10653;SDS011;5375;51.250;6.776;2023-11-21T05:52:41;2.33;;;1.50;;
10653;SDS011;5375;51.250;6.776;2023-11-21T05:55:10;4.77;;;1.97;;
10653;SDS011;5375;51.250;6.776;2023-11-21T05:57:37;4.83;;;1.93;;
10653;SDS011;5375;51.250;6.776;2023-11-21T06:02:36;6.17;;;2.10;;
10653;SDS011;5375;51.250;6.776;2023-11-21T06:05:02;4.40;;;1.90;;
10653;SDS011;5375;51.250;6.776;2023-11-21T06:07:29;4.23;;;2.00;;
10653;SDS011;5375;51.250;6.776;2023-11-21T06:09:54;4.10;;;1.60;;
10653;SDS011;5375;51.250;6.776;2023-11-21T06:12:21;3.17;;;1.70;;
10653;SDS011;5375;51.250;6.776;2023-11-21T06:14:48;3.27;;;1.90;;
10653;SDS011;5375;51.250;6.776;2023-11-21T06:17:14;2.60;;;1.57;;
10653;SDS011;5375;51.250;6.776;2023-11-21T06:19:39;3.83;;;1.90;;
10653;SDS011;5375;51.250;6.776;2023-11-21T06:22:05;3.90;;;2.00;;
10653;SDS011;5375;51.250;6.776;2023-11-21T06:24:31;4.00;;;2.10;;
10653;SDS011;5375;51.250;6.776;2023-11-21T06:26:57;4.90;;;1.97;;
10653;SDS011;5375;51.250;6.776;2023-11-21T06:29:23;3.67;;;1.90;;
10653;SDS011;5375;51.250;6.776;2023-11-21T06:31:49;3.73;;;2.00;;
10653;SDS011;5375;51.250;6.776;2023-11-21T06:34:15;2.53;;;1.60;;
10653;SDS011;5375;51.250;6.776;2023-11-21T06:36:41;2.83;;;1.60;;
10653;SDS011;5375;51.250;6.776;2023-11-21T06:39:07;3.50;;;1.83;;
10653;SDS011;5375;51.250;6.776;2023-11-21T06:41:33;1.97;;;1.60;;
10653;SDS011;5375;51.250;6.776;2023-11-21T06:43:59;4.70;;;2.07;;
10653;SDS011;5375;51.250;6.776;2023-11-21T06:46:25;3.07;;;1.60;;
10653;SDS011;5375;51.250;6.776;2023-11-21T06:48:51;3.23;;;2.00;;
10653;SDS011;5375;51.250;6.776;2023-11-21T06:51:18;3.20;;;1.67;;
10653;SDS011;5375;51.250;6.776;2023-11-21T06:53:45;3.30;;;2.07;;
10653;SDS011;5375;51.250;6.776;2023-11-21T06:56:17;3.40;;;1.90;;
10653;SDS011;5375;51.250;6.776;2023-11-21T06:58:46;4.23;;;1.70;;
10653;SDS011;5375;51.250;6.776;2023-11-21T07:01:12;3.90;;;1.87;;
10653;SDS011;5375;51.250;6.776;2023-11-21T07:03:38;4.20;;;2.00;;
10653;SDS011;5375;51.250;6.776;2023-11-21T07:06:05;3.53;;;2.00;;
10653;SDS011;5375;51.250;6.776;2023-11-21T07:08:32;3.27;;;1.97;;
10653;SDS011;5375;51.250;6.776;2023-11-21T07:10:58;3.70;;;1.80;;
10653;SDS011;5375;51.250;6.776;2023-11-21T07:13:24;3.40;;;2.07;;
10653;SDS011;5375;51.250;6.776;2023-11-21T07:15:51;2.13;;;1.63;;
10653;SDS011;5375;51.250;6.776;2023-11-21T07:18:17;3.13;;;1.67;;
10653;SDS011;5375;51.250;6.776;2023-11-21T07:20:43;4.00;;;1.93;;
10653;SDS011;5375;51.250;6.776;2023-11-21T07:23:09;3.53;;;1.83;;
10653;SDS011;5375;51.250;6.776;2023-11-21T07:25:35;3.03;;;2.07;;
10653;SDS011;5375;51.250;6.776;2023-11-21T07:28:01;3.90;;;1.80;;
10653;SDS011;5375;51.250;6.776;2023-11-21T07:30:27;3.17;;;1.90;;
10653;SDS011;5375;51.250;6.776;2023-11-21T07:32:53;2.40;;;1.80;;
10653;SDS011;5375;51.250;6.776;2023-11-21T07:35:19;3.00;;;1.90;;
10653;SDS011;5375;51.250;6.776;2023-11-21T07:37:44;4.53;;;1.83;;
10653;SDS011;5375;51.250;6.776;2023-11-21T07:40:12;4.90;;;1.90;;
10653;SDS011;5375;51.250;6.776;2023-11-21T07:42:38;3.70;;;2.03;;
10653;SDS011;5375;51.250;6.776;2023-11-21T07:45:05;3.40;;;2.27;;
10653;SDS011;5375;51.250;6.776;2023-11-21T07:47:31;2.17;;;1.83;;
10653;SDS011;5375;51.250;6.776;2023-11-21T07:49:59;4.57;;;2.30;;
10653;SDS011;5375;51.250;6.776;2023-11-21T07:52:25;3.97;;;2.30;;
10653;SDS011;5375;51.250;6.776;2023-11-21T07:54:51;4.47;;;1.87;;
10653;SDS011;5375;51.250;6.776;2023-11-21T07:57:17;3.20;;;2.10;;
10653;SDS011;5375;51.250;6.776;2023-11-21T07:59:43;4.50;;;2.57;;
10653;SDS011;5375;51.250;6.776;2023-11-21T08:02:09;5.00;;;2.20;;
10653;SDS011;5375;51.250;6.776;2023-11-21T08:04:34;3.60;;;2.40;;
10653;SDS011;5375;51.250;6.776;2023-11-21T08:07:00;3.97;;;2.30;;
10653;SDS011;5375;51.250;6.776;2023-11-21T08:09:27;3.77;;;2.30;;
10653;SDS011;5375;51.250;6.776;2023-11-21T08:11:53;3.67;;;2.50;;
10653;SDS011;5375;51.250;6.776;2023-11-21T08:14:18;5.20;;;2.63;;
10653;SDS011;5375;51.250;6.776;2023-11-21T08:16:45;4.73;;;2.50;;
10653;SDS011;5375;51.250;6.776;2023-11-21T08:19:11;3.87;;;2.67;;
10653;SDS011;5375;51.250;6.776;2023-11-21T08:21:37;5.30;;;3.20;;
10653;SDS011;5375;51.250;6.776;2023-11-21T08:24:04;6.27;;;2.90;;
10653;SDS011;5375;51.250;6.776;2023-11-21T08:26:31;4.47;;;2.60;;
10653;SDS011;5375;51.250;6.776;2023-11-21T08:28:56;3.90;;;2.87;;
10653;SDS011;5375;51.250;6.776;2023-11-21T08:31:25;6.00;;;2.60;;
10653;SDS011;5375;51.250;6.776;2023-11-21T08:33:51;3.53;;;2.63;;
10653;SDS011;5375;51.250;6.776;2023-11-21T08:36:20;4.07;;;2.87;;
10653;SDS011;5375;51.250;6.776;2023-11-21T08:38:48;4.50;;;2.67;;
10653;SDS011;5375;51.250;6.776;2023-11-21T08:41:14;4.23;;;2.70;;
10653;SDS011;5375;51.250;6.776;2023-11-21T08:43:41;4.27;;;2.70;;
10653;SDS011;5375;51.250;6.776;2023-11-21T08:46:07;5.20;;;2.77;;
10653;SDS011;5375;51.250;6.776;2023-11-21T08:48:36;5.37;;;3.00;;
10653;SDS011;5375;51.250;6.776;2023-11-21T08:51:02;5.10;;;3.20;;
10653;SDS011;5375;51.250;6.776;2023-11-21T08:53:29;4.50;;;3.20;;
10653;SDS011;5375;51.250;6.776;2023-11-21T08:55:56;5.47;;;2.90;;
10653;SDS011;5375;51.250;6.776;2023-11-21T08:58:22;4.63;;;3.07;;
10653;SDS011;5375;51.250;6.776;2023-11-21T09:00:47;3.93;;;2.80;;
10653;SDS011;5375;51.250;6.776;2023-11-21T09:03:13;5.90;;;3.03;;
10653;SDS011;5375;51.250;6.776;2023-11-21T09:05:39;3.77;;;2.70;;
10653;SDS011;5375;51.250;6.776;2023-11-21T09:08:05;4.57;;;2.60;;
10653;SDS011;5375;51.250;6.776;2023-11-21T09:10:32;4.23;;;2.90;;
10653;SDS011;5375;51.250;6.776;2023-11-21T09:13:00;4.93;;;2.83;;
10653;SDS011;5375;51.250;6.776;2023-11-21T09:15:26;3.80;;;2.80;;
10653;SDS011;5375;51.250;6.776;2023-11-21T09:17:53;6.07;;;2.93;;
10653;SDS011;5375;51.250;6.776;2023-11-21T09:20:19;3.47;;;2.97;;
10653;SDS011;5375;51.250;6.776;2023-11-21T09:22:47;4.00;;;3.00;;
10653;SDS011;5375;51.250;6.776;2023-11-21T09:25:13;4.70;;;2.80;;
10653;SDS011;5375;51.250;6.776;2023-11-21T09:27:40;3.97;;;2.73;;
10653;SDS011;5375;51.250;6.776;2023-11-21T09:30:06;4.30;;;3.30;;
10653;SDS011;5375;51.250;6.776;2023-11-21T09:32:35;3.13;;;2.47;;
10653;SDS011;5375;51.250;6.776;2023-11-21T09:35:02;4.53;;;2.67;;
10653;SDS011;5375;51.250;6.776;2023-11-21T09:37:28;3.87;;;2.90;;
10653;SDS011;5375;51.250;6.776;2023-11-21T09:39:55;5.93;;;3.07;;
10653;SDS011;5375;51.250;6.776;2023-11-21T09:42:32;4.70;;;3.13;;
10653;SDS011;5375;51.250;6.776;2023-11-21T09:47:35;4.03;;;2.97;;
10653;SDS011;5375;51.250;6.776;2023-11-21T09:50:03;4.37;;;2.83;;
10653;SDS011;5375;51.250;6.776;2023-11-21T09:52:33;4.17;;;2.80;;
10653;SDS011;5375;51.250;6.776;2023-11-21T09:55:13;4.60;;;3.00;;
10653;SDS011;5375;51.250;6.776;2023-11-21T09:57:43;4.60;;;3.10;;
10653;SDS011;5375;51.250;6.776;2023-11-21T10:00:10;4.50;;;3.27;;
10653;SDS011;5375;51.250;6.776;2023-11-21T10:02:37;3.87;;;2.90;;
10653;SDS011;5375;51.250;6.776;2023-11-21T10:05:05;5.50;;;3.40;;
10653;SDS011;5375;51.250;6.776;2023-11-21T10:07:32;4.03;;;3.27;;
10653;SDS011;5375;51.250;6.776;2023-11-21T10:09:59;4.50;;;2.97;;
10653;SDS011;5375;51.250;6.776;2023-11-21T10:12:26;4.20;;;3.10;;
10653;SDS011;5375;51.250;6.776;2023-11-21T10:14:53;5.23;;;3.37;;
10653;SDS011;5375;51.250;6.776;2023-11-21T10:17:22;5.03;;;3.40;;
10653;SDS011;5375;51.250;6.776;2023-11-21T10:19:54;3.87;;;2.90;;
10653;SDS011;5375;51.250;6.776;2023-11-21T10:22:21;5.00;;;3.10;;
10653;SDS011;5375;51.250;6.776;2023-11-21T10:24:47;3.63;;;2.77;;
10653;SDS011;5375;51.250;6.776;2023-11-21T10:27:12;4.87;;;3.20;;
10653;SDS011;5375;51.250;6.776;2023-11-21T10:29:39;4.57;;;2.97;;
10653;SDS011;5375;51.250;6.776;2023-11-21T10:32:06;4.83;;;3.10;;
10653;SDS011;5375;51.250;6.776;2023-11-21T10:34:32;4.23;;;3.37;;
10653;SDS011;5375;51.250;6.776;2023-11-21T10:36:59;4.17;;;3.10;;
10653;SDS011;5375;51.250;6.776;2023-11-21T10:39:36;5.00;;;3.10;;
10653;SDS011;5375;51.250;6.776;2023-11-21T10:42:02;5.00;;;3.03;;
10653;SDS011;5375;51.250;6.776;2023-11-21T10:44:28;4.53;;;3.03;;
10653;SDS011;5375;51.250;6.776;2023-11-21T10:46:54;4.70;;;3.33;;
10653;SDS011;5375;51.250;6.776;2023-11-21T10:49:26;4.47;;;3.10;;
10653;SDS011;5375;51.250;6.776;2023-11-21T10:51:52;4.17;;;3.10;;
10653;SDS011;5375;51.250;6.776;2023-11-21T10:54:19;5.00;;;3.10;;
10653;SDS011;5375;51.250;6.776;2023-11-21T10:56:46;4.53;;;2.97;;
10653;SDS011;5375;51.250;6.776;2023-11-21T10:59:22;4.97;;;3.13;;
10653;SDS011;5375;51.250;6.776;2023-11-21T11:01:50;4.50;;;3.27;;
10653;SDS011;5375;51.250;6.776;2023-11-21T11:04:20;4.30;;;3.40;;
10653;SDS011;5375;51.250;6.776;2023-11-21T11:06:54;5.07;;;3.23;;
10653;SDS011;5375;51.250;6.776;2023-11-21T11:09:22;3.93;;;3.07;;
10653;SDS011;5375;51.250;6.776;2023-11-21T11:11:48;4.93;;;3.00;;
10653;SDS011;5375;51.250;6.776;2023-11-21T11:14:15;5.17;;;3.30;;
10653;SDS011;5375;51.250;6.776;2023-11-21T11:16:41;4.57;;;3.00;;
10653;SDS011;5375;51.250;6.776;2023-11-21T11:19:10;4.93;;;3.33;;
10653;SDS011;5375;51.250;6.776;2023-11-21T11:33:42;5.30;;;3.30;;
10653;SDS011;5375;51.250;6.776;2023-11-21T11:38:44;5.03;;;3.20;;
10653;SDS011;5375;51.250;6.776;2023-11-21T11:41:11;5.50;;;3.30;;
10653;SDS011;5375;51.250;6.776;2023-11-21T11:43:37;4.80;;;2.93;;
10653;SDS011;5375;51.250;6.776;2023-11-21T11:46:10;5.47;;;3.77;;
10653;SDS011;5375;51.250;6.776;2023-11-21T11:48:40;4.83;;;3.27;;
10653;SDS011;5375;51.250;6.776;2023-11-21T11:51:06;5.10;;;3.50;;
10653;SDS011;5375;51.250;6.776;2023-11-21T11:53:35;4.87;;;3.40;;
10653;SDS011;5375;51.250;6.776;2023-11-21T11:58:52;4.63;;;3.30;;
10653;SDS011;5375;51.250;6.776;2023-11-21T12:01:19;4.87;;;3.20;;
10653;SDS011;5375;51.250;6.776;2023-11-21T12:06:42;4.37;;;2.97;;
10653;SDS011;5375;51.250;6.776;2023-11-21T12:09:17;4.87;;;2.90;;
10653;SDS011;5375;51.250;6.776;2023-11-21T12:11:44;5.00;;;3.30;;
10653;SDS011;5375;51.250;6.776;2023-11-21T12:14:11;8.20;;;3.77;;
10653;SDS011;5375;51.250;6.776;2023-11-21T12:16:38;4.20;;;3.10;;
10653;SDS011;5375;51.250;6.776;2023-11-21T12:19:04;6.17;;;3.83;;
10653;SDS011;5375;51.250;6.776;2023-11-21T12:21:30;4.23;;;3.00;;
10653;SDS011;5375;51.250;6.776;2023-11-21T12:23:57;4.10;;;3.10;;
10653;SDS011;5375;51.250;6.776;2023-11-21T12:26:23;6.87;;;3.30;;
10653;SDS011;5375;51.250;6.776;2023-11-21T12:28:53;6.30;;;3.10;;
10653;SDS011;5375;51.250;6.776;2023-11-21T12:31:22;6.00;;;3.40;;
10653;SDS011;5375;51.250;6.776;2023-11-21T12:33:48;3.93;;;3.13;;
10653;SDS011;5375;51.250;6.776;2023-11-21T12:36:14;4.40;;;3.30;;
10653;SDS011;5375;51.250;6.776;2023-11-21T12:38:41;6.23;;;3.47;;
10653;SDS011;5375;51.250;6.776;2023-11-21T12:41:07;5.13;;;3.40;;
10653;SDS011;5375;51.250;6.776;2023-11-21T12:43:35;6.23;;;3.40;;
10653;SDS011;5375;51.250;6.776;2023-11-21T12:46:07;5.03;;;3.17;;
10653;SDS011;5375;51.250;6.776;2023-11-21T12:48:37;4.93;;;3.40;;
10653;SDS011;5375;51.250;6.776;2023-11-21T12:51:10;3.97;;;2.90;;
10653;SDS011;5375;51.250;6.776;2023-11-21T12:53:37;4.80;;;3.40;;
10653;SDS011;5375;51.250;6.776;2023-11-21T12:56:07;3.90;;;3.13;;
10653;SDS011;5375;51.250;6.776;2023-11-21T12:58:35;5.80;;;3.20;;
10653;SDS011;5375;51.250;6.776;2023-11-21T13:01:02;5.13;;;3.40;;
10653;SDS011;5375;51.250;6.776;2023-11-21T13:03:34;5.00;;;3.20;;
10653;SDS011;5375;51.250;6.776;2023-11-21T13:06:02;4.27;;;3.13;;
10653;SDS011;5375;51.250;6.776;2023-11-21T13:08:30;5.47;;;3.23;;
10653;SDS011;5375;51.250;6.776;2023-11-21T13:10:58;5.80;;;3.53;;
10653;SDS011;5375;51.250;6.776;2023-11-21T13:13:24;4.90;;;3.40;;
10653;SDS011;5375;51.250;6.776;2023-11-21T13:15:54;5.37;;;3.33;;
10653;SDS011;5375;51.250;6.776;2023-11-21T13:18:26;5.27;;;3.27;;
10653;SDS011;5375;51.250;6.776;2023-11-21T13:20:56;6.23;;;3.70;;
10653;SDS011;5375;51.250;6.776;2023-11-21T13:23:24;5.20;;;2.97;;
10653;SDS011;5375;51.250;6.776;2023-11-21T13:25:50;4.23;;;3.23;;
10653;SDS011;5375;51.250;6.776;2023-11-21T13:28:17;4.90;;;3.17;;
10653;SDS011;5375;51.250;6.776;2023-11-21T13:30:45;4.00;;;3.30;;
10653;SDS011;5375;51.250;6.776;2023-11-21T13:33:12;5.73;;;3.10;;
10653;SDS011;5375;51.250;6.776;2023-11-21T13:35:42;4.83;;;2.90;;
10653;SDS011;5375;51.250;6.776;2023-11-21T13:38:16;4.60;;;3.23;;
10653;SDS011;5375;51.250;6.776;2023-11-21T13:40:50;4.70;;;3.00;;
10653;SDS011;5375;51.250;6.776;2023-11-21T13:43:19;5.07;;;3.13;;
10653;SDS011;5375;51.250;6.776;2023-11-21T13:45:47;4.50;;;3.27;;
10653;SDS011;5375;51.250;6.776;2023-11-21T13:48:23;4.50;;;3.07;;
10653;SDS011;5375;51.250;6.776;2023-11-21T13:51:13;4.10;;;3.03;;
10653;SDS011;5375;51.250;6.776;2023-11-21T13:53:45;4.50;;;3.33;;
10653;SDS011;5375;51.250;6.776;2023-11-21T13:56:20;6.37;;;3.10;;
10653;SDS011;5375;51.250;6.776;2023-11-21T13:58:49;4.27;;;3.07;;
10653;SDS011;5375;51.250;6.776;2023-11-21T14:01:19;4.13;;;3.03;;
10653;SDS011;5375;51.250;6.776;2023-11-21T14:03:58;4.67;;;3.20;;
10653;SDS011;5375;51.250;6.776;2023-11-21T14:06:42;4.73;;;2.80;;
10653;SDS011;5375;51.250;6.776;2023-11-21T14:09:23;4.00;;;2.83;;
10653;SDS011;5375;51.250;6.776;2023-11-21T14:11:58;5.57;;;3.20;;
10653;SDS011;5375;51.250;6.776;2023-11-21T14:14:25;4.13;;;3.20;;
10653;SDS011;5375;51.250;6.776;2023-11-21T14:16:52;4.83;;;3.20;;
10653;SDS011;5375;51.250;6.776;2023-11-21T14:19:19;3.23;;;2.80;;
10653;SDS011;5375;51.250;6.776;2023-11-21T14:21:46;4.50;;;2.87;;
10653;SDS011;5375;51.250;6.776;2023-11-21T14:24:13;4.43;;;3.10;;
10653;SDS011;5375;51.250;6.776;2023-11-21T14:26:43;4.97;;;3.40;;
10653;SDS011;5375;51.250;6.776;2023-11-21T14:29:11;4.33;;;2.90;;
10653;SDS011;5375;51.250;6.776;2023-11-21T14:31:39;5.23;;;3.07;;
10653;SDS011;5375;51.250;6.776;2023-11-21T14:34:06;5.40;;;2.97;;
10653;SDS011;5375;51.250;6.776;2023-11-21T14:36:32;4.23;;;2.83;;
10653;SDS011;5375;51.250;6.776;2023-11-21T14:38:58;4.30;;;3.00;;
10653;SDS011;5375;51.250;6.776;2023-11-21T14:41:24;3.97;;;2.90;;
10653;SDS011;5375;51.250;6.776;2023-11-21T14:43:50;4.17;;;2.63;;
10653;SDS011;5375;51.250;6.776;2023-11-21T14:46:17;4.00;;;3.10;;
10653;SDS011;5375;51.250;6.776;2023-11-21T14:48:44;3.77;;;2.80;;
10653;SDS011;5375;51.250;6.776;2023-11-21T14:51:23;3.73;;;3.10;;
10653;SDS011;5375;51.250;6.776;2023-11-21T14:53:59;4.47;;;3.40;;
10653;SDS011;5375;51.250;6.776;2023-11-21T14:56:35;3.93;;;2.80;;
10653;SDS011;5375;51.250;6.776;2023-11-21T14:59:02;4.43;;;2.87;;
10653;SDS011;5375;51.250;6.776;2023-11-21T15:01:37;4.03;;;2.97;;
10653;SDS011;5375;51.250;6.776;2023-11-21T15:04:20;4.90;;;3.27;;
10653;SDS011;5375;51.250;6.776;2023-11-21T15:07:01;4.90;;;3.13;;
10653;SDS011;5375;51.250;6.776;2023-11-21T15:09:31;4.03;;;2.80;;
10653;SDS011;5375;51.250;6.776;2023-11-21T15:11:57;3.93;;;2.97;;
10653;SDS011;5375;51.250;6.776;2023-11-21T15:14:34;3.57;;;2.60;;
10653;SDS011;5375;51.250;6.776;2023-11-21T15:17:01;4.33;;;2.77;;
10653;SDS011;5375;51.250;6.776;2023-11-21T15:19:28;4.40;;;2.70;;
10653;SDS011;5375;51.250;6.776;2023-11-21T15:21:56;3.50;;;2.80;;
10653;SDS011;5375;51.250;6.776;2023-11-21T15:24:23;3.90;;;2.70;;
10653;SDS011;5375;51.250;6.776;2023-11-21T15:26:49;3.37;;;2.70;;